Time;durP1;ratioP1;P1;durP2;ratioP2;P2;SDS_P1;SDS_P2;PMS_P1;PMS_P2;Temp;Humidity;BMP_temperature;BMP_pressure;BME280_temperature;BME280_humidity;BME280_pressure;Samples;Min_cycle;Max_cycle;Signal;HPM_P1;HPM_P2
2022/05/06 00:03:55;;;;;;;12.33;4.97;;;;;;;17.41;47.09;98449.28;8483996;27;20225;-75
2022/05/06 00:07:58;;;;;;;9.17;4.87;;;;;;;17.33;46.14;98447.16;8484778;27;20302;-75
2022/05/06 00:12:01;;;;;;;8.70;4.90;;;;;;;17.34;46.11;98448.00;8484382;27;20240;-75
2022/05/06 00:16:04;;;;;;;7.07;4.90;;;;;;;17.27;45.92;98451.94;8484757;27;20420;-75
2022/05/06 00:20:10;;;;;;;7.77;5.30;;;;;;;17.22;45.74;98439.16;8484480;28;20233;-74
2022/05/06 00:24:13;;;;;;;7.83;5.00;;;;;;;17.31;46.29;98441.19;8484451;28;20237;-74
2022/05/06 00:28:16;;;;;;;8.67;4.70;;;;;;;17.25;46.32;98448.59;8484242;28;20244;-74
2022/05/06 00:32:19;;;;;;;10.27;5.20;;;;;;;17.21;45.86;98447.97;8483987;28;20226;-74
2022/05/06 00:36:24;;;;;;;10.90;5.10;;;;;;;17.29;46.01;98445.69;8500329;27;20522;-74
2022/05/06 00:40:27;;;;;;;12.60;4.90;;;;;;;17.25;46.07;98444.22;8483510;28;20229;-74
2022/05/06 00:44:30;;;;;;;10.67;5.07;;;;;;;17.06;46.05;98441.94;8483792;28;20225;-74
2022/05/06 00:48:33;;;;;;;11.27;5.13;;;;;;;16.87;46.18;98441.38;8483501;27;20528;-74
2022/05/06 00:52:37;;;;;;;8.43;4.33;;;;;;;17.06;46.05;98441.06;8483244;27;20225;-75
2022/05/06 00:56:41;;;;;;;9.53;4.50;;;;;;;17.11;46.93;98439.84;8483072;28;20289;-74
2022/05/06 01:00:44;;;;;;;10.00;4.30;;;;;;;17.03;45.80;98436.03;8483082;28;20527;-75
2022/05/06 01:04:47;;;;;;;5.90;3.90;;;;;;;17.07;45.72;98432.28;8482594;28;20221;-75
2022/05/06 01:08:52;;;;;;;6.67;3.90;;;;;;;17.08;46.57;98433.97;8482630;27;20229;-75
2022/05/06 01:12:55;;;;;;;8.33;4.23;;;;;;;17.08;47.27;98436.59;8482691;27;20241;-74
2022/05/06 01:16:58;;;;;;;9.47;4.10;;;;;;;17.00;47.12;98435.31;8482525;28;20233;-74
2022/05/06 01:21:02;;;;;;;6.20;3.90;;;;;;;17.01;47.53;98441.38;8482433;28;20233;-74
2022/05/06 01:25:07;;;;;;;11.77;3.83;;;;;;;16.91;47.42;98438.50;8482129;28;20232;-74
2022/05/06 01:29:11;;;;;;;5.20;3.53;;;;;;;16.84;46.64;98439.81;8482271;28;20230;-74
2022/05/06 01:33:15;;;;;;;7.60;4.20;;;;;;;16.88;46.85;98438.69;8482120;28;20233;-75
2022/05/06 01:37:19;;;;;;;5.67;3.80;;;;;;;16.80;47.28;98438.28;8482034;27;20237;-74
2022/05/06 01:41:27;;;;;;;9.07;4.00;;;;;;;16.79;47.91;98447.06;8481548;28;20237;-73
2022/05/06 01:45:31;;;;;;;10.87;4.60;;;;;;;16.75;47.80;98440.34;8481706;28;20229;-73
2022/05/06 01:49:34;;;;;;;6.67;4.30;;;;;;;16.72;48.00;98445.78;8481129;27;20266;-74
2022/05/06 01:53:38;;;;;;;7.37;4.13;;;;;;;16.64;48.26;98448.00;8481464;28;20251;-74
2022/05/06 01:57:42;;;;;;;7.87;4.40;;;;;;;16.58;48.71;98447.47;8481360;28;20432;-74
2022/05/06 02:01:45;;;;;;;11.03;4.20;;;;;;;16.49;48.40;98442.81;8481392;27;20396;-75
2022/05/06 02:05:49;;;;;;;5.93;4.10;;;;;;;16.54;48.33;98438.09;8481239;27;20404;-75
2022/05/06 02:09:52;;;;;;;7.70;4.43;;;;;;;16.46;48.95;98445.59;8481156;28;20228;-74
2022/05/06 02:13:56;;;;;;;9.10;4.63;;;;;;;16.48;48.86;98448.13;8481064;28;20240;-75
2022/05/06 02:17:59;;;;;;;10.30;4.70;;;;;;;16.40;48.75;98435.50;8481093;28;20237;-75
2022/05/06 02:22:02;;;;;;;8.03;4.67;;;;;;;16.42;48.88;98444.09;8481028;28;20467;-75
2022/05/06 02:26:05;;;;;;;9.53;5.17;;;;;;;16.36;49.08;98434.03;8480579;28;20516;-75
2022/05/06 02:34:31;;;;;;;9.93;4.93;;;;;;;16.25;49.66;98439.06;8480466;28;20224;-74
2022/05/06 02:38:34;;;;;;;8.83;5.00;;;;;;;16.24;49.22;98440.84;8480636;28;20299;-74
2022/05/06 02:42:37;;;;;;;6.03;4.63;;;;;;;16.14;49.35;98435.28;8480397;28;20241;-75
2022/05/06 02:46:42;;;;;;;8.53;4.70;;;;;;;16.21;49.34;98439.22;8480516;28;20240;-75
2022/05/06 02:50:45;;;;;;;8.47;4.43;;;;;;;16.09;49.32;98441.72;8480556;28;20412;-75
2022/05/06 02:54:48;;;;;;;7.07;4.57;;;;;;;16.09;49.50;98439.09;8480289;28;20226;-75
2022/05/06 02:58:51;;;;;;;7.13;4.70;;;;;;;16.10;49.60;98440.81;8481207;28;20229;-75
2022/05/06 03:02:56;;;;;;;5.80;4.27;;;;;;;16.08;49.32;98434.84;8486978;27;20236;-75
2022/05/06 03:06:59;;;;;;;11.07;5.27;;;;;;;15.96;49.48;98437.22;8486875;28;20233;-74
2022/05/06 03:11:02;;;;;;;9.43;5.00;;;;;;;15.89;49.87;98435.91;8486718;28;20233;-75
2022/05/06 03:15:07;;;;;;;7.73;5.23;;;;;;;15.88;49.95;98436.00;8503558;27;20229;-74
2022/05/06 03:19:11;;;;;;;10.60;5.00;;;;;;;15.92;49.50;98430.50;8503442;27;20275;-75
2022/05/06 03:23:15;;;;;;;7.13;4.63;;;;;;;15.90;49.60;98436.78;8503462;27;20232;-75
2022/05/06 03:31:42;;;;;;;6.17;4.67;;;;;;;15.79;49.24;98438.22;8485843;27;20221;-75
2022/05/06 03:35:47;;;;;;;9.17;5.20;;;;;;;15.73;49.65;98445.56;8486037;28;20232;-75
2022/05/06 03:39:50;;;;;;;8.97;5.00;;;;;;;15.77;50.07;98439.25;8485678;28;20225;-75
2022/05/06 03:43:53;;;;;;;8.20;4.73;;;;;;;15.82;49.53;98439.81;8485763;28;20531;-75
2022/05/06 03:47:58;;;;;;;6.77;4.47;;;;;;;15.87;49.56;98455.22;8485559;27;20409;-75
2022/05/06 03:52:03;;;;;;;6.93;4.70;;;;;;;15.76;49.64;98448.88;8485561;27;20236;-75
2022/05/06 03:56:07;;;;;;;7.27;5.00;;;;;;;15.79;49.54;98450.44;8485297;27;20242;-75
2022/05/06 04:00:11;;;;;;;10.23;4.80;;;;;;;15.73;49.99;98453.38;8484984;27;20229;-75
2022/05/06 04:04:13;;;;;;;6.87;4.87;;;;;;;15.76;49.65;98455.81;8484912;28;20229;-75
2022/05/06 04:08:18;;;;;;;8.13;4.80;;;;;;;15.79;49.78;98471.34;8484826;27;20555;-75
2022/05/06 04:12:23;;;;;;;7.27;5.07;;;;;;;15.77;49.59;98470.59;8484320;27;20240;-74
2022/05/06 04:16:27;;;;;;;6.10;4.40;;;;;;;15.78;49.60;98473.13;8492631;27;20258;-74
2022/05/06 04:24:51;;;;;;;6.20;4.07;;;;;;;15.81;49.22;98472.09;8484511;28;20225;-75
2022/05/06 04:28:56;;;;;;;7.47;4.50;;;;;;;15.81;49.34;98472.91;8484059;28;20236;-75
2022/05/06 04:33:00;;;;;;;8.07;4.03;;;;;;;15.83;48.85;98480.66;8484178;27;20232;-75
2022/05/06 04:37:05;;;;;;;6.50;4.43;;;;;;;15.86;49.00;98479.63;8484055;27;20229;-78
2022/05/06 04:41:10;;;;;;;8.03;4.20;;;;;;;15.89;49.36;98488.13;8483854;27;20248;-81
2022/05/06 04:45:13;;;;;;;5.90;4.10;;;;;;;15.86;49.57;98488.34;8483584;28;20233;-77
2022/05/06 04:49:16;;;;;;;7.63;4.50;;;;;;;15.85;49.93;98491.03;8483547;28;20233;-77
2022/05/06 04:53:20;;;;;;;7.50;4.13;;;;;;;15.88;49.81;98496.06;8483444;27;20228;-77
2022/05/06 04:57:24;;;;;;;5.63;4.40;;;;;;;15.97;49.67;98503.38;8499790;27;20233;-76
2022/05/06 05:01:27;;;;;;;6.23;4.10;;;;;;;15.88;49.46;98512.59;8500232;27;20227;-75
2022/05/06 05:05:30;;;;;;;10.50;4.20;;;;;;;15.85;49.67;98510.16;8516032;27;20234;-75
2022/05/06 05:09:33;;;;;;;7.13;4.10;;;;;;;15.91;49.60;98508.94;8516004;27;20511;-75
2022/05/06 05:13:39;;;;;;;8.37;4.03;;;;;;;15.98;49.50;98511.13;8513250;27;20233;-76
2022/05/06 05:17:42;;;;;;;9.10;3.93;;;;;;;15.88;49.62;98514.34;8514134;27;20236;-75
2022/05/06 05:21:45;;;;;;;6.90;4.17;;;;;;;16.02;49.60;98511.78;8515728;27;20232;-75
2022/05/06 05:25:48;;;;;;;8.20;3.90;;;;;;;16.04;49.22;98512.53;8501506;27;20559;-76
2022/05/06 05:29:53;;;;;;;8.40;3.70;;;;;;;16.00;48.59;98509.25;8513297;27;20239;-75
2022/05/06 05:33:57;;;;;;;6.90;3.17;;;;;;;16.03;48.15;98508.25;8516360;27;20239;-76
2022/05/06 05:38:00;;;;;;;7.07;3.30;;;;;;;16.15;48.10;98507.53;8516159;27;20420;-76
2022/05/06 05:42:05;;;;;;;5.87;3.20;;;;;;;16.20;47.08;98517.69;8516133;27;20247;-76
2022/05/06 05:50:30;;;;;;;3.87;2.90;;;;;;;16.44;46.88;98523.25;8508099;27;20255;-74
2022/05/06 05:54:33;;;;;;;4.43;2.80;;;;;;;16.50;46.46;98529.91;8515680;27;20229;-75
2022/05/06 05:58:36;;;;;;;5.37;2.90;;;;;;;16.54;45.20;98531.41;8515643;27;20267;-75
2022/05/06 06:02:41;;;;;;;4.37;2.70;;;;;;;16.55;45.40;98522.63;8504464;27;20427;-75
2022/05/06 06:06:44;;;;;;;5.87;3.00;;;;;;;16.67;45.08;98531.50;8498224;27;20225;-75
2022/05/06 06:10:47;;;;;;;6.20;2.87;;;;;;;16.76;45.23;98529.19;8498310;27;20236;-75
2022/05/06 06:14:50;;;;;;;6.23;3.07;;;;;;;16.84;44.98;98531.34;8498036;27;20240;-74
2022/05/06 06:18:55;;;;;;;6.13;2.63;;;;;;;17.04;43.63;98531.91;8497981;27;20229;-74
2022/05/06 06:22:57;;;;;;;6.10;2.30;;;;;;;17.23;43.77;98529.84;8498125;27;20228;-74
2022/05/06 06:27:00;;;;;;;7.47;2.70;;;;;;;17.16;43.03;98534.59;8497966;27;20520;-75
2022/05/06 06:31:03;;;;;;;8.17;2.73;;;;;;;16.76;42.41;98539.63;8498027;27;20225;-74
2022/05/06 06:35:08;;;;;;;5.47;2.47;;;;;;;17.14;41.85;98539.09;8502452;27;20296;-74
2022/05/06 06:39:11;;;;;;;4.83;2.77;;;;;;;17.25;41.71;98554.16;8505051;27;20229;-74
2022/05/06 06:43:14;;;;;;;5.27;2.10;;;;;;;17.33;40.35;98546.63;8504941;27;20528;-74
2022/05/06 06:47:17;;;;;;;5.30;2.60;;;;;;;17.76;41.71;98545.66;8504371;27;20421;-74
2022/05/06 06:51:22;;;;;;;8.23;2.83;;;;;;;17.67;41.25;98541.03;8504284;27;20225;-74
2022/05/06 06:55:25;;;;;;;4.17;2.20;;;;;;;17.77;41.29;98540.34;8495806;27;20424;-73
2022/05/06 06:59:28;;;;;;;5.47;2.57;;;;;;;17.80;40.98;98544.56;8504284;27;20532;-73
2022/05/06 07:03:31;;;;;;;6.33;2.33;;;;;;;17.73;41.46;98541.47;8503859;27;20300;-74
2022/05/06 07:11:56;;;;;;;7.70;2.57;;;;;;;17.73;42.22;98538.88;8503834;27;20410;-74
2022/05/06 07:16:00;;;;;;;6.10;2.60;;;;;;;17.52;42.78;98542.88;8503754;27;20546;-75
2022/05/06 07:20:03;;;;;;;9.33;2.50;;;;;;;17.49;42.67;98548.28;8503407;27;20248;-75
2022/05/06 07:24:09;;;;;;;5.80;2.20;;;;;;;17.65;42.44;98545.53;8503484;27;20229;-74
2022/05/06 07:28:12;;;;;;;7.53;2.43;;;;;;;17.80;42.02;98541.94;8503318;27;20229;-75
2022/05/06 07:32:15;;;;;;;3.73;2.30;;;;;;;17.82;41.56;98545.31;8503351;27;20232;-75
2022/05/06 07:36:23;;;;;;;9.27;2.07;;;;;;;17.96;41.60;98550.50;8502916;27;20236;-75
2022/05/06 07:40:28;;;;;;;3.37;2.10;;;;;;;18.15;41.35;98558.00;8502630;27;20307;-74
2022/05/06 07:44:31;;;;;;;6.57;2.57;;;;;;;18.17;42.03;98553.47;8501927;27;20239;-74
2022/05/06 07:48:34;;;;;;;3.50;1.80;;;;;;;18.27;40.80;98552.88;8501938;27;20233;-75
2022/05/06 07:52:40;;;;;;;4.33;2.10;;;;;;;18.53;40.69;98551.97;8502272;27;20234;-75
2022/05/06 07:56:45;;;;;;;11.47;2.43;;;;;;;18.67;39.82;98558.06;8502250;27;20217;-75
2022/05/06 08:00:50;;;;;;;7.30;2.10;;;;;;;18.64;40.61;98560.88;8502189;27;20219;-74
2022/05/06 08:04:57;;;;;;;7.20;1.90;;;;;;;18.52;39.91;98562.56;8501976;27;20228;-74
2022/05/06 08:09:01;;;;;;;5.60;1.73;;;;;;;18.71;39.72;98560.34;8501780;27;20233;-74
2022/05/06 08:13:06;;;;;;;6.10;2.10;;;;;;;18.78;39.54;98567.84;8502109;27;20285;-75
2022/05/06 08:17:09;;;;;;;6.30;2.10;;;;;;;18.73;37.71;98573.38;8501832;27;20224;-75
2022/05/06 08:21:12;;;;;;;3.27;1.67;;;;;;;18.88;38.08;98567.09;8501739;27;20232;-75
2022/05/06 08:25:15;;;;;;;5.30;1.70;;;;;;;18.93;36.49;98566.81;8501554;27;20232;-75
2022/05/06 08:29:35;;;;;;;4.93;1.87;;;;;;;18.86;35.75;98573.41;8494098;27;20229;-74
2022/05/06 08:33:38;;;;;;;36.07;29.43;;;;;;;18.78;36.27;98571.28;8501082;27;20226;-74
2022/05/06 08:37:41;;;;;;;7.67;2.60;;;;;;;18.82;37.24;98575.41;8501122;27;20229;-74
2022/05/06 08:41:44;;;;;;;6.20;1.43;;;;;;;19.02;36.86;98578.44;8501026;27;20229;-74
2022/05/06 08:54:32;;;;;;;6.17;1.60;;;;;;;19.11;36.62;98581.28;8500228;27;20225;-74
2022/05/06 08:58:37;;;;;;;4.60;1.50;;;;;;;19.14;36.58;98582.84;8500404;27;20234;-75
2022/05/06 09:02:41;;;;;;;5.20;3.10;;;;;;;19.38;43.29;98582.06;8499409;27;20257;-74
2022/05/06 09:06:44;;;;;;;10.87;3.47;;;;;;;19.78;44.98;98581.88;8517100;27;20217;-74
2022/05/06 09:11:00;;;;;;;4.90;2.40;;;;;;;20.15;41.31;98587.09;8516834;27;20395;-72
2022/05/06 09:19:28;;;;;;;5.20;2.53;;;;;;;20.03;37.47;98580.91;8515963;27;20528;-73
2022/05/06 09:23:31;;;;;;;6.57;2.27;;;;;;;19.91;36.51;98583.50;8516366;27;20538;-73
2022/05/06 09:27:32;;;;;;;4.83;2.00;;;;;;;20.07;36.40;98585.03;8516645;27;20432;-73
2022/05/06 09:31:36;;;;;;;8.00;3.10;;;;;;;20.12;34.91;98582.88;8505577;27;20252;-74
2022/05/06 09:35:41;;;;;;;31.80;2.50;;;;;;;19.66;33.81;98581.78;8482047;28;20229;-75
2022/05/06 09:39:44;;;;;;;7.10;2.10;;;;;;;20.23;35.47;98587.34;8484860;27;20221;-76
2022/05/06 09:43:59;;;;;;;6.47;2.00;;;;;;;20.45;35.15;98586.59;8498410;27;20426;-75
2022/05/06 09:48:03;;;;;;;6.83;2.03;;;;;;;20.41;35.03;98583.34;8498631;27;20240;-73
2022/05/06 09:52:12;;;;;;;6.90;2.17;;;;;;;20.54;35.34;98585.03;8498518;27;20284;-73
2022/05/06 09:56:15;;;;;;;7.23;1.63;;;;;;;20.49;34.37;98586.22;8498610;27;20233;-74
2022/05/06 10:00:18;;;;;;;6.20;1.97;;;;;;;20.21;33.09;98594.50;8498691;27;20428;-74
2022/05/06 10:04:21;;;;;;;6.10;1.70;;;;;;;20.39;34.62;98587.88;8489948;27;20237;-73
2022/05/06 10:08:27;;;;;;;4.23;1.60;;;;;;;20.49;33.91;98588.88;8483517;27;20226;-75
2022/05/06 10:12:36;;;;;;;5.07;2.00;;;;;;;20.66;34.71;98590.25;8475675;28;20524;-74
2022/05/06 10:16:42;;;;;;;4.77;1.73;;;;;;;20.48;34.56;98588.97;8447270;28;20313;-74
2022/05/06 10:20:55;;;;;;;6.93;1.97;;;;;;;20.84;34.30;98585.38;8475058;28;20287;-75
2022/05/06 10:25:00;;;;;;;6.50;2.00;;;;;;;20.83;34.51;98591.59;8478288;27;20225;-75
2022/05/06 10:33:24;;;;;;;3.77;2.20;;;;;;;20.81;34.97;98587.38;8481518;27;20230;-74
2022/05/06 10:37:36;;;;;;;5.87;1.80;;;;;;;20.78;34.03;98585.00;8482823;27;20236;-79
2022/05/06 10:41:59;;;;;;;3.97;1.73;;;;;;;21.15;32.62;98580.38;8480803;28;20525;-76
2022/05/06 10:46:02;;;;;;;3.47;1.77;;;;;;;21.27;31.88;98582.03;8480629;28;20238;-74
2022/05/06 10:50:13;;;;;;;6.57;2.50;;;;;;;21.48;31.67;98578.72;8480491;28;20230;-74
2022/05/06 10:54:17;;;;;;;3.83;2.03;;;;;;;21.36;32.59;98577.84;8480511;28;20293;-75
2022/05/06 10:58:21;;;;;;;4.40;2.00;;;;;;;21.39;32.08;98566.22;8480459;28;20254;-76
2022/05/06 11:02:27;;;;;;;4.63;1.93;;;;;;;21.32;32.67;98570.31;8488245;27;20235;-75
2022/05/06 11:06:31;;;;;;;2.43;1.67;;;;;;;21.56;32.33;98565.75;8507305;27;20476;-75
2022/05/06 11:10:35;;;;;;;6.77;2.10;;;;;;;21.61;31.89;98560.97;8513622;27;20245;-75
2022/05/06 11:15:01;;;;;;;3.13;1.80;;;;;;;21.57;32.00;98558.66;8514199;27;20227;-74
2022/05/06 11:19:07;;;;;;;4.67;1.87;;;;;;;21.93;31.40;98552.22;8513744;27;20246;-72
2022/05/06 11:23:11;;;;;;;5.20;2.30;;;;;;;22.24;30.87;98553.16;8519918;27;20236;-75
2022/05/06 11:27:15;;;;;;;5.47;2.07;;;;;;;22.12;31.65;98558.63;8520524;27;20270;-74
2022/05/06 11:31:20;;;;;;;3.17;1.70;;;;;;;22.22;31.04;98551.63;8520336;27;20237;-74
2022/05/06 11:35:34;;;;;;;4.90;1.80;;;;;;;22.32;30.81;98551.75;8502200;27;20226;-76
2022/05/06 11:39:37;;;;;;;5.17;2.03;;;;;;;22.43;31.40;98556.94;8485707;27;20233;-75
2022/05/06 11:43:41;;;;;;;4.37;2.17;;;;;;;22.39;31.14;98550.22;8485297;27;20539;-74
2022/05/06 11:47:44;;;;;;;4.73;1.97;;;;;;;22.25;30.49;98549.59;8513834;27;20231;-75
2022/05/06 11:51:47;;;;;;;5.33;2.43;;;;;;;22.30;29.50;98543.94;8498955;27;20520;-75
2022/05/06 11:55:50;;;;;;;8.43;3.00;;;;;;;22.51;29.31;98551.03;8479806;28;20225;-74
2022/05/06 11:59:54;;;;;;;6.07;2.03;;;;;;;22.79;30.45;98553.00;8506017;27;20239;-74
2022/05/06 12:04:02;;;;;;;4.57;2.30;;;;;;;23.15;30.08;98539.41;8513744;27;20310;-74
2022/05/06 12:08:09;;;;;;;6.70;2.53;;;;;;;23.14;30.71;98543.84;8493461;27;20259;-73
2022/05/06 12:12:12;;;;;;;5.27;2.47;;;;;;;22.94;30.62;98545.56;8484884;28;20229;-73
2022/05/06 12:16:15;;;;;;;7.57;2.17;;;;;;;22.80;30.04;98541.44;8484907;28;20233;-74
2022/05/06 12:20:33;;;;;;;5.70;2.73;;;;;;;22.06;29.54;98530.94;8484417;27;20425;-74
2022/05/06 12:24:44;;;;;;;5.97;2.30;;;;;;;22.09;31.21;98529.88;8494184;27;20222;-73
2022/05/06 12:28:48;;;;;;;4.50;2.37;;;;;;;22.19;30.92;98526.31;8512760;27;20229;-74
2022/05/06 12:33:04;;;;;;;7.43;2.90;;;;;;;22.29;31.81;98520.31;8493147;27;20237;-74
2022/05/06 12:37:13;;;;;;;6.03;2.73;;;;;;;22.01;30.24;98530.50;8483282;27;20233;-73
2022/05/06 12:41:20;;;;;;;4.47;2.50;;;;;;;21.79;30.56;98528.78;8482521;28;20445;-73
2022/05/06 12:45:23;;;;;;;5.93;2.60;;;;;;;21.93;30.94;98532.94;8482233;28;20229;-73
2022/05/06 12:49:42;;;;;;;4.93;2.37;;;;;;;22.16;30.74;98525.75;8483351;28;20406;-73
2022/05/06 12:53:46;;;;;;;4.47;2.30;;;;;;;22.16;31.46;98528.38;8483630;28;20221;-74
2022/05/06 12:57:49;;;;;;;4.27;2.20;;;;;;;22.24;32.05;98531.25;8483372;28;20235;-74
2022/05/06 13:01:52;;;;;;;4.40;2.67;;;;;;;22.62;30.14;98529.84;8483380;28;20228;-73
2022/05/06 13:05:55;;;;;;;5.50;2.40;;;;;;;22.62;30.61;98528.03;8483126;28;20229;-74
2022/05/06 13:10:01;;;;;;;3.87;2.37;;;;;;;22.75;30.54;98514.63;8482991;27;20237;-73
2022/05/06 13:14:06;;;;;;;4.83;2.57;;;;;;;22.63;30.97;98510.38;8491260;27;20236;-72
2022/05/06 13:18:09;;;;;;;5.20;2.13;;;;;;;22.70;30.82;98514.19;8482859;28;20259;-73
2022/05/06 13:22:14;;;;;;;5.50;2.83;;;;;;;22.78;30.63;98511.69;8482843;27;20304;-73
2022/05/06 13:26:18;;;;;;;6.30;2.33;;;;;;;23.00;30.98;98502.78;8482358;28;20562;-72
2022/05/06 13:30:21;;;;;;;3.60;2.40;;;;;;;22.88;30.50;98508.28;8482323;28;20240;-72
2022/05/06 13:34:24;;;;;;;5.60;2.60;;;;;;;22.68;30.50;98495.00;8490288;27;20534;-72
2022/05/06 13:38:27;;;;;;;5.40;2.57;;;;;;;22.50;30.07;98493.91;8482002;28;20233;-72
2022/05/06 13:42:32;;;;;;;4.87;2.53;;;;;;;22.47;30.59;98496.84;8481189;28;20229;-72
2022/05/06 13:46:35;;;;;;;5.17;2.03;;;;;;;22.62;30.85;98493.72;8481883;28;20266;-72
2022/05/06 13:50:38;;;;;;;5.13;2.50;;;;;;;22.54;30.83;98496.19;8481878;28;20433;-72
2022/05/06 13:54:41;;;;;;;5.10;2.57;;;;;;;22.58;30.86;98502.88;8481538;28;20233;-71
2022/05/06 13:59:04;;;;;;;6.53;2.60;;;;;;;22.61;31.58;98496.47;8481132;28;20436;-72
2022/05/06 14:03:08;;;;;;;4.57;2.63;;;;;;;22.49;30.26;98493.09;8481628;28;20426;-72
2022/05/06 14:07:11;;;;;;;12.13;2.90;;;;;;;22.36;31.52;98493.28;8480967;28;20233;-71
2022/05/06 14:11:16;;;;;;;4.43;2.40;;;;;;;22.43;31.20;98496.25;8481409;28;20258;-71
2022/05/06 14:15:20;;;;;;;5.23;2.63;;;;;;;22.23;31.39;98487.34;8472600;27;20232;-72
2022/05/06 14:19:23;;;;;;;5.80;2.60;;;;;;;22.21;31.61;98491.91;8464310;28;20229;-72
2022/05/06 14:23:26;;;;;;;6.90;2.70;;;;;;;22.28;31.72;98490.47;8481002;27;20243;-71
2022/05/06 14:27:29;;;;;;;5.57;2.40;;;;;;;22.32;31.18;98481.31;8480917;28;20221;-73
2022/05/06 14:31:34;;;;;;;5.07;2.67;;;;;;;22.42;31.26;98494.56;8481071;28;20484;-72
2022/05/06 14:35:38;;;;;;;7.93;2.60;;;;;;;22.26;30.71;98487.13;8494117;27;20232;-72
2022/05/06 14:39:41;;;;;;;5.23;2.50;;;;;;;22.18;31.16;98486.88;8514739;27;20541;-77
2022/05/06 14:43:44;;;;;;;5.23;2.60;;;;;;;22.26;31.70;98484.50;8514655;27;20231;-74
2022/05/06 14:47:49;;;;;;;7.93;2.23;;;;;;;22.19;30.01;98473.56;8514541;27;20230;-74
2022/05/06 14:51:52;;;;;;;4.20;2.03;;;;;;;22.21;30.76;98476.09;8514679;27;20232;-73
2022/05/06 14:55:56;;;;;;;5.83;2.60;;;;;;;21.98;31.61;98478.03;8518880;27;20536;-73
2022/05/06 14:59:59;;;;;;;3.57;2.10;;;;;;;22.22;32.30;98481.25;8521463;27;20236;-73
2022/05/06 15:04:08;;;;;;;7.63;2.10;;;;;;;22.10;31.83;98476.97;8521324;27;20570;-74
2022/05/06 15:08:11;;;;;;;7.37;2.10;;;;;;;22.19;31.33;98470.94;8521474;27;20566;-74
2022/05/06 15:12:15;;;;;;;5.10;2.20;;;;;;;22.14;31.47;98473.16;8520939;27;20243;-73
2022/05/06 15:16:18;;;;;;;8.57;2.67;;;;;;;22.08;31.37;98476.28;8520962;27;20239;-74
2022/05/06 15:20:22;;;;;;;5.20;2.23;;;;;;;21.98;31.64;98470.94;8520799;27;20229;-72
2022/05/06 15:24:27;;;;;;;5.70;1.97;;;;;;;21.86;30.95;98470.16;8520139;27;20414;-72
2022/05/06 15:28:30;;;;;;;3.00;1.77;;;;;;;21.84;31.21;98466.81;8520277;27;20236;-72
2022/05/06 15:32:33;;;;;;;5.10;2.20;;;;;;;21.76;31.58;98471.03;8520377;27;20233;-73
2022/05/06 15:36:38;;;;;;;4.00;1.73;;;;;;;21.87;31.92;98468.34;8520189;27;20237;-73
2022/05/06 15:40:41;;;;;;;6.83;1.97;;;;;;;21.89;32.32;98468.22;8520301;27;20243;-74
2022/05/06 15:44:43;;;;;;;3.63;2.00;;;;;;;21.73;31.85;98471.31;8520093;27;20228;-74
2022/05/06 15:48:47;;;;;;;5.60;1.97;;;;;;;21.65;32.01;98461.41;8519845;27;20246;-74
2022/05/06 15:52:51;;;;;;;4.23;1.90;;;;;;;21.64;32.66;98465.81;8519468;27;20232;-73
2022/05/06 15:56:55;;;;;;;7.27;2.20;;;;;;;21.61;33.04;98462.59;8519476;27;20224;-73
2022/05/06 16:00:58;;;;;;;2.97;2.30;;;;;;;21.59;32.91;98470.66;8519154;27;20228;-72
2022/05/06 16:05:03;;;;;;;4.10;1.90;;;;;;;21.54;32.74;98457.00;8519252;27;20233;-73
2022/05/06 16:09:08;;;;;;;4.80;1.87;;;;;;;21.61;33.55;98462.59;8518626;27;20535;-73
2022/05/06 16:13:11;;;;;;;5.37;2.17;;;;;;;21.53;33.84;98465.84;8518648;27;20240;-73
2022/05/06 16:17:14;;;;;;;9.03;2.70;;;;;;;21.26;33.01;98461.00;8518980;27;20228;-73
2022/05/06 16:21:18;;;;;;;9.13;2.47;;;;;;;21.16;33.54;98460.91;8518806;27;20235;-73
2022/05/06 16:25:23;;;;;;;8.07;2.07;;;;;;;21.23;33.56;98454.19;8518536;27;20234;-72
2022/05/06 16:29:26;;;;;;;3.47;1.73;;;;;;;21.21;33.94;98464.00;8518206;27;20513;-72
2022/05/06 16:33:28;;;;;;;8.60;2.50;;;;;;;21.23;34.08;98454.19;8517997;27;20536;-73
2022/05/06 16:37:30;;;;;;;3.17;2.30;;;;;;;21.21;34.21;98465.78;8518076;27;20235;-73
2022/05/06 16:41:35;;;;;;;6.57;2.30;;;;;;;21.03;33.96;98460.22;8518128;27;20537;-73
2022/05/06 16:45:38;;;;;;;5.00;2.90;;;;;;;20.99;33.89;98453.53;8517706;27;20229;-73
2022/05/06 16:49:42;;;;;;;6.20;4.10;;;;;;;20.82;32.94;98454.84;8517797;27;20314;-72
2022/05/06 16:53:45;;;;;;;5.33;2.10;;;;;;;20.70;33.50;98449.59;8517385;27;20224;-73
2022/05/06 16:57:50;;;;;;;5.13;2.80;;;;;;;20.89;33.95;98445.50;8517439;27;20230;-73
2022/05/06 17:01:53;;;;;;;5.23;3.33;;;;;;;20.84;34.01;98445.03;8517280;27;20270;-73
2022/05/06 17:05:56;;;;;;;3.80;2.27;;;;;;;20.75;33.80;98451.03;8517233;27;20228;-73
2022/05/06 17:09:59;;;;;;;5.13;3.00;;;;;;;20.83;34.47;98448.63;8516871;27;20376;-73
2022/05/06 17:14:04;;;;;;;5.73;2.30;;;;;;;20.80;34.45;98457.59;8516721;27;20240;-73
2022/05/06 17:18:08;;;;;;;7.97;6.17;;;;;;;20.67;34.31;98459.50;8516683;27;20239;-73
2022/05/06 17:22:16;;;;;;;24.87;20.27;;;;;;;20.65;34.70;98457.00;8516694;27;20427;-72
2022/05/06 17:26:18;;;;;;;6.73;4.87;;;;;;;20.61;35.05;98470.53;8516518;27;20229;-72
2022/05/06 17:30:23;;;;;;;3.37;2.10;;;;;;;20.68;35.36;98463.84;8515974;27;20641;-72
2022/05/06 17:34:26;;;;;;;6.83;3.07;;;;;;;20.63;35.70;98468.59;8516039;27;20240;-73
2022/05/06 17:38:29;;;;;;;4.63;2.10;;;;;;;20.44;35.15;98462.09;8516114;27;20247;-73
2022/05/06 17:42:34;;;;;;;5.40;2.23;;;;;;;20.39;34.90;98455.50;8516020;27;20242;-73
2022/05/06 17:46:39;;;;;;;4.13;2.33;;;;;;;20.40;35.17;98462.47;8515841;27;20231;-73
2022/05/06 17:50:47;;;;;;;3.10;2.30;;;;;;;20.38;34.87;98464.38;8515671;27;20295;-73
2022/05/06 17:54:50;;;;;;;13.97;7.10;;;;;;;20.33;35.50;98471.78;8515546;27;20273;-73
2022/05/06 17:58:53;;;;;;;14.60;11.33;;;;;;;20.28;35.45;98474.78;8515521;27;20234;-73
2022/05/06 18:02:58;;;;;;;7.73;5.57;;;;;;;20.27;36.01;98473.06;8515133;27;20234;-72
2022/05/06 18:07:01;;;;;;;8.83;4.83;;;;;;;20.19;36.40;98485.97;8515570;27;20231;-73
2022/05/06 18:11:04;;;;;;;11.17;5.33;;;;;;;20.07;36.28;98478.06;8515226;27;20242;-73
2022/05/06 18:15:08;;;;;;;14.53;10.23;;;;;;;20.05;36.08;98479.97;8515060;27;20231;-74
2022/05/06 18:19:13;;;;;;;14.03;10.93;;;;;;;20.01;36.47;98482.94;8514819;27;20234;-74
2022/05/06 18:23:16;;;;;;;22.00;15.27;;;;;;;19.94;36.43;98487.81;8514716;27;20234;-74
2022/05/06 18:27:19;;;;;;;32.47;26.60;;;;;;;19.86;36.13;98488.38;8514933;27;20234;-74
2022/05/06 18:35:45;;;;;;;44.97;36.80;;;;;;;19.61;37.62;98489.34;8514781;27;20534;-74
2022/05/06 18:39:48;;;;;;;32.20;24.37;;;;;;;19.57;37.08;98490.47;8514860;27;20402;-73
2022/05/06 18:43:50;;;;;;;30.20;19.80;;;;;;;19.48;36.96;98496.44;8514741;27;20235;-74
2022/05/06 18:47:54;;;;;;;15.83;10.47;;;;;;;19.43;36.88;98498.53;8514522;27;20293;-73
2022/05/06 18:51:58;;;;;;;23.97;16.00;;;;;;;19.33;36.95;98496.56;8514771;27;20528;-74
2022/05/06 18:56:01;;;;;;;22.57;15.80;;;;;;;19.33;37.48;98509.72;8514575;27;20535;-73
2022/05/06 19:00:09;;;;;;;30.07;22.50;;;;;;;19.25;37.28;98504.19;8514728;27;20233;-73
2022/05/06 19:04:11;;;;;;;19.77;13.97;;;;;;;19.18;37.67;98509.97;8514426;27;20225;-73
2022/05/06 19:08:16;;;;;;;8.93;5.30;;;;;;;19.20;37.96;98514.16;8514541;27;20232;-73
2022/05/06 19:12:19;;;;;;;4.43;2.70;;;;;;;19.07;37.85;98521.22;8514014;27;20233;-73
2022/05/06 19:16:23;;;;;;;6.10;2.20;;;;;;;18.93;38.47;98522.19;8513883;27;20625;-73
2022/05/06 19:20:28;;;;;;;3.63;1.93;;;;;;;18.88;38.45;98527.75;8514139;27;20233;-73
2022/05/06 19:24:43;;;;;;;6.93;2.40;;;;;;;18.87;39.25;98533.13;8514206;27;20574;-73
2022/05/06 19:28:49;;;;;;;7.40;2.40;;;;;;;18.78;39.10;98529.31;8514153;27;20229;-73
2022/05/06 19:32:52;;;;;;;4.27;2.40;;;;;;;18.68;39.91;98530.91;8513936;27;20338;-73
2022/05/06 19:36:55;;;;;;;3.73;2.20;;;;;;;18.68;40.01;98533.53;8513896;27;20229;-73
2022/05/06 19:40:59;;;;;;;4.50;2.20;;;;;;;18.58;40.84;98533.28;8514419;27;20229;-73
2022/05/06 19:45:02;;;;;;;4.33;2.63;;;;;;;18.49;39.99;98533.94;8519859;27;20417;-72
2022/05/06 19:49:05;;;;;;;7.77;3.30;;;;;;;18.49;40.18;98537.38;8519788;27;20235;-73
2022/05/06 19:53:08;;;;;;;6.20;2.80;;;;;;;18.41;40.50;98529.22;8519575;27;20248;-73